Time;durP1;ratioP1;P1;durP2;ratioP2;P2;SDS_P1;SDS_P2;PMS_P1;PMS_P2;Temp;Humidity;BMP_temperature;BMP_pressure;BME280_temperature;BME280_humidity;BME280_pressure;Samples;Min_cycle;Max_cycle;Signal;HPM_P1;HPM_P2
2021/05/05 00:01:59;;;;;;;20.63;3.50;;;20.40;62.70;;;;;;5062562;28;20183;-68
2021/05/05 00:04:26;;;;;;;14.67;3.77;;;20.50;62.80;;;;;;5058893;28;20191;-67
2021/05/05 00:06:56;;;;;;;16.20;3.00;;;20.50;63.20;;;;;;5063735;28;20195;-71
2021/05/05 00:09:23;;;;;;;20.87;3.17;;;20.70;62.30;;;;;;5080103;28;20207;-67
2021/05/05 00:11:50;;;;;;;19.93;3.53;;;20.70;62.50;;;;;;5061964;28;20672;-67
2021/05/05 00:14:19;;;;;;;13.00;3.17;;;20.70;62.70;;;;;;5063410;28;20199;-67
2021/05/05 00:16:46;;;;;;;11.83;3.83;;;20.70;63.30;;;;;;5064261;28;20198;-66
2021/05/05 00:19:13;;;;;;;14.30;3.03;;;20.60;64.10;;;;;;5065498;28;20226;-68
2021/05/05 00:21:41;;;;;;;18.00;3.63;;;20.60;64.60;;;;;;5060859;28;20179;-71
2021/05/05 00:24:09;;;;;;;14.20;3.00;;;20.50;64.20;;;;;;5047262;28;20186;-66
2021/05/05 00:26:36;;;;;;;17.37;3.37;;;20.50;64.40;;;;;;5062858;28;20200;-69
2021/05/05 00:29:03;;;;;;;13.90;2.93;;;20.50;65.30;;;;;;5059421;28;20203;-66
2021/05/05 00:31:30;;;;;;;24.00;3.27;;;20.50;65.80;;;;;;5057491;28;20186;-67
2021/05/05 00:33:57;;;;;;;19.97;3.33;;;20.40;66.90;;;;;;5065565;28;20358;-68
2021/05/05 00:36:24;;;;;;;17.37;3.63;;;20.40;67.10;;;;;;5065368;28;20211;-66
2021/05/05 00:38:50;;;;;;;19.17;3.80;;;20.10;67.60;;;;;;5065401;28;20211;-69
2021/05/05 00:41:18;;;;;;;23.77;3.40;;;20.20;66.10;;;;;;5061780;28;20187;-66
2021/05/05 00:43:45;;;;;;;16.30;3.67;;;20.50;66.10;;;;;;5066278;28;20641;-66
2021/05/05 00:46:12;;;;;;;16.50;3.47;;;20.70;66.40;;;;;;5061402;28;20187;-66
2021/05/05 00:48:38;;;;;;;16.70;3.40;;;20.90;64.60;;;;;;5065025;28;20186;-65
2021/05/05 00:51:06;;;;;;;16.33;3.23;;;21.10;64.80;;;;;;5063188;28;20265;-68
2021/05/05 00:53:34;;;;;;;18.03;3.40;;;21.00;65.30;;;;;;5064334;28;20201;-65
2021/05/05 00:56:03;;;;;;;16.13;3.50;;;21.10;65.00;;;;;;5062935;28;20517;-67
2021/05/05 00:58:30;;;;;;;30.03;3.80;;;21.20;65.70;;;;;;5059362;28;20229;-65
2021/05/05 01:00:57;;;;;;;33.17;5.07;;;21.10;65.50;;;;;;5064719;28;20557;-65
2021/05/05 01:03:23;;;;;;;20.53;3.40;;;21.10;66.70;;;;;;5062080;28;20319;-66
2021/05/05 01:05:51;;;;;;;13.70;3.37;;;21.00;67.30;;;;;;5064760;28;20197;-66
2021/05/05 01:08:21;;;;;;;13.67;3.57;;;20.70;68.80;;;;;;5061658;28;20190;-65
2021/05/05 01:10:50;;;;;;;26.90;3.63;;;20.50;69.80;;;;;;5064202;28;20195;-66
2021/05/05 01:13:17;;;;;;;20.07;3.20;;;20.10;70.90;;;;;;5056928;28;20728;-66
2021/05/05 01:15:44;;;;;;;14.20;3.20;;;19.90;71.20;;;;;;5062252;28;20341;-66
2021/05/05 01:18:11;;;;;;;22.60;3.93;;;19.60;71.40;;;;;;5060860;28;20203;-68
2021/05/05 01:20:39;;;;;;;13.17;3.17;;;19.50;71.80;;;;;;5059590;28;20190;-69
2021/05/05 01:23:06;;;;;;;15.17;3.63;;;19.30;72.40;;;;;;5062712;28;20190;-67
2021/05/05 01:25:33;;;;;;;21.33;3.97;;;19.20;72.70;;;;;;5062749;28;20583;-70
2021/05/05 01:28:00;;;;;;;29.53;3.77;;;19.20;72.80;;;;;;5057095;28;20233;-68
2021/05/05 01:30:28;;;;;;;17.00;3.33;;;19.10;72.90;;;;;;5064055;28;20206;-65
2021/05/05 01:32:54;;;;;;;20.77;3.70;;;19.10;73.40;;;;;;5056483;28;20270;-65
2021/05/05 01:35:24;;;;;;;17.33;3.70;;;19.30;71.70;;;;;;5065795;28;20218;-70
2021/05/05 01:37:53;;;;;;;17.00;3.53;;;19.60;71.50;;;;;;5060785;28;20190;-69
2021/05/05 01:40:35;;;;;;;19.30;3.90;;;19.60;72.80;;;;;;5060654;28;20191;-66
2021/05/05 01:43:05;;;;;;;15.83;3.43;;;19.70;74.40;;;;;;5064133;28;20191;-67
2021/05/05 01:45:33;;;;;;;16.13;3.83;;;19.60;75.00;;;;;;5062369;28;20282;-65
2021/05/05 01:48:03;;;;;;;16.70;4.17;;;19.60;76.10;;;;;;5060373;28;20257;-68
2021/05/05 01:50:30;;;;;;;13.90;3.53;;;19.60;77.90;;;;;;5060258;28;20199;-65
2021/05/05 01:52:57;;;;;;;23.03;3.60;;;19.50;79.20;;;;;;5057836;28;20233;-68
2021/05/05 01:55:23;;;;;;;20.53;3.87;;;19.40;80.00;;;;;;5062967;28;20199;-68
2021/05/05 01:57:50;;;;;;;14.40;3.60;;;19.20;81.00;;;;;;5065498;28;20195;-68
2021/05/05 02:00:22;;;;;;;28.03;4.10;;;18.70;82.40;;;;;;5063606;28;20184;-68
2021/05/05 02:02:48;;;;;;;26.33;3.30;;;18.70;83.40;;;;;;5063355;28;20194;-67
2021/05/05 02:05:16;;;;;;;19.53;4.37;;;18.60;83.40;;;;;;5062028;28;20187;-67
2021/05/05 02:07:43;;;;;;;15.33;3.43;;;18.30;82.00;;;;;;5060883;28;20198;-67
2021/05/05 02:10:14;;;;;;;19.30;3.93;;;18.20;82.10;;;;;;5061604;28;20651;-66
2021/05/05 02:12:41;;;;;;;21.50;3.30;;;18.00;82.40;;;;;;5063459;28;20186;-67
2021/05/05 02:15:11;;;;;;;14.87;3.80;;;18.00;82.70;;;;;;5061824;28;20187;-69
2021/05/05 02:17:38;;;;;;;12.13;3.30;;;17.90;82.30;;;;;;5059313;28;20244;-66
2021/05/05 02:20:11;;;;;;;19.63;4.40;;;18.00;82.30;;;;;;5062277;28;20190;-67
2021/05/05 02:22:41;;;;;;;21.07;4.47;;;18.00;82.50;;;;;;5064059;28;20249;-68
2021/05/05 02:25:09;;;;;;;12.90;3.50;;;17.90;83.30;;;;;;5062220;28;20183;-68
2021/05/05 02:27:38;;;;;;;15.07;4.17;;;17.90;83.90;;;;;;5063060;28;20183;-68
2021/05/05 02:30:09;;;;;;;24.30;3.70;;;18.20;84.40;;;;;;5059661;28;20524;-67
2021/05/05 02:32:38;;;;;;;19.73;3.50;;;18.40;84.70;;;;;;5064289;28;20194;-69
2021/05/05 02:35:08;;;;;;;21.73;3.77;;;18.50;85.70;;;;;;5046635;28;20580;-69
2021/05/05 02:37:36;;;;;;;18.87;4.33;;;18.50;85.50;;;;;;5043885;28;20199;-69
2021/05/05 02:40:07;;;;;;;15.87;3.70;;;18.50;86.00;;;;;;5064326;28;20198;-69
2021/05/05 02:42:34;;;;;;;12.93;3.13;;;18.60;86.10;;;;;;5060879;28;20190;-70
2021/05/05 02:45:01;;;;;;;17.87;4.00;;;18.70;86.10;;;;;;5061939;28;20523;-68
2021/05/05 02:47:27;;;;;;;27.07;4.33;;;18.80;85.60;;;;;;5062772;28;20179;-68
2021/05/05 02:49:54;;;;;;;25.00;3.97;;;18.90;85.40;;;;;;5064179;28;20314;-69
2021/05/05 02:52:20;;;;;;;24.40;4.07;;;19.00;84.80;;;;;;5061772;28;20245;-69
2021/05/05 02:54:47;;;;;;;15.63;3.30;;;19.10;85.20;;;;;;5063791;28;20802;-65
2021/05/05 02:57:14;;;;;;;17.37;3.50;;;19.10;85.40;;;;;;5066015;28;20227;-68
2021/05/05 02:59:40;;;;;;;19.70;3.80;;;19.20;84.90;;;;;;5063696;28;20263;-69
2021/05/05 03:02:08;;;;;;;17.87;3.83;;;19.30;84.40;;;;;;5063143;28;20304;-69
2021/05/05 03:04:34;;;;;;;15.77;4.00;;;19.30;84.50;;;;;;5063473;28;20652;-68
2021/05/05 03:07:01;;;;;;;22.37;3.57;;;19.10;85.20;;;;;;5060937;28;20219;-67
2021/05/05 03:09:28;;;;;;;18.53;3.60;;;18.90;85.00;;;;;;5058291;28;20191;-66
2021/05/05 03:12:00;;;;;;;14.90;3.30;;;18.90;83.80;;;;;;5064249;28;20199;-68
2021/05/05 03:14:28;;;;;;;18.80;3.80;;;18.70;84.10;;;;;;5062349;28;20190;-68
2021/05/05 03:16:56;;;;;;;22.47;3.73;;;18.60;83.80;;;;;;5062296;28;20941;-67
2021/05/05 03:19:24;;;;;;;21.87;3.83;;;18.50;84.10;;;;;;5082757;28;20230;-68
2021/05/05 03:21:50;;;;;;;16.60;3.80;;;18.50;84.10;;;;;;5038513;28;20221;-67
2021/05/05 03:24:17;;;;;;;18.80;3.50;;;18.50;84.60;;;;;;5068728;28;20187;-68
2021/05/05 03:26:44;;;;;;;17.37;3.20;;;18.50;84.00;;;;;;5065854;28;21529;-67
2021/05/05 03:29:10;;;;;;;15.03;3.70;;;18.50;84.10;;;;;;5069162;28;20191;-68
2021/05/05 03:31:37;;;;;;;24.00;3.40;;;18.40;84.80;;;;;;5062407;28;20183;-68
2021/05/05 03:34:05;;;;;;;14.40;3.17;;;18.30;84.70;;;;;;5066403;28;20195;-68
2021/05/05 03:36:33;;;;;;;16.27;3.53;;;18.30;85.40;;;;;;5060934;28;20210;-67
2021/05/05 03:39:01;;;;;;;19.33;4.13;;;18.20;85.80;;;;;;5064735;28;20246;-66
2021/05/05 03:41:29;;;;;;;20.00;3.53;;;18.20;86.00;;;;;;5061479;28;20254;-68
2021/05/05 03:43:56;;;;;;;20.73;3.10;;;18.20;86.10;;;;;;5065570;28;20183;-69
2021/05/05 03:46:23;;;;;;;21.23;3.50;;;18.30;86.00;;;;;;5064602;28;20198;-67
2021/05/05 03:48:49;;;;;;;16.10;3.43;;;18.50;86.70;;;;;;5065024;28;20190;-67
2021/05/05 03:51:16;;;;;;;19.57;3.77;;;18.50;86.60;;;;;;5048742;28;20218;-68
2021/05/05 03:53:42;;;;;;;14.80;3.60;;;18.60;86.50;;;;;;5064413;28;20191;-68
2021/05/05 03:56:09;;;;;;;20.87;3.50;;;18.80;85.90;;;;;;5061997;28;20186;-67
2021/05/05 03:58:35;;;;;;;19.37;3.40;;;19.00;86.00;;;;;;5070014;28;20215;-68
2021/05/05 04:01:02;;;;;;;13.50;3.67;;;19.00;86.90;;;;;;5065351;28;20218;-68
2021/05/05 04:03:28;;;;;;;17.93;3.53;;;19.00;89.00;;;;;;5065072;28;20191;-70
2021/05/05 04:05:54;;;;;;;24.10;3.90;;;18.90;89.80;;;;;;5077928;28;20187;-70
2021/05/05 04:08:21;;;;;;;19.27;3.93;;;18.90;90.40;;;;;;5068685;28;20662;-68
2021/05/05 04:10:47;;;;;;;17.80;3.23;;;18.90;90.80;;;;;;5056368;28;20195;-68
2021/05/05 04:13:14;;;;;;;23.20;4.30;;;18.90;90.90;;;;;;5067402;28;20199;-68
2021/05/05 04:15:40;;;;;;;10.43;2.93;;;18.90;91.80;;;;;;5060918;28;20666;-70
2021/05/05 04:18:06;;;;;;;18.70;4.03;;;18.90;92.00;;;;;;5064620;28;20820;-70
2021/05/05 04:20:34;;;;;;;15.97;3.67;;;18.90;92.30;;;;;;5043624;28;20191;-70
2021/05/05 04:23:00;;;;;;;21.07;3.60;;;18.80;93.40;;;;;;5042739;28;20257;-69
2021/05/05 04:25:27;;;;;;;15.87;3.43;;;18.80;94.00;;;;;;5067033;28;20290;-68
2021/05/05 04:27:54;;;;;;;14.97;3.33;;;18.70;95.00;;;;;;5061504;28;20186;-68
2021/05/05 04:30:21;;;;;;;17.43;3.50;;;18.70;96.10;;;;;;5063155;28;21217;-70
2021/05/05 04:32:50;;;;;;;24.23;4.47;;;18.70;96.70;;;;;;5066409;28;20233;-70
2021/05/05 04:35:20;;;;;;;24.87;3.43;;;18.90;96.50;;;;;;5058048;28;20253;-66
2021/05/05 04:37:47;;;;;;;13.47;3.30;;;19.00;97.70;;;;;;5058442;28;20697;-67
2021/05/05 04:40:14;;;;;;;14.47;3.67;;;19.10;98.00;;;;;;5065550;28;20627;-67
2021/05/05 04:42:40;;;;;;;23.57;3.70;;;19.30;97.90;;;;;;5062760;28;20199;-69
2021/05/05 04:45:11;;;;;;;21.30;3.83;;;19.50;96.90;;;;;;5060711;28;20257;-71
2021/05/05 04:47:38;;;;;;;19.20;3.63;;;19.60;97.50;;;;;;5062614;28;20183;-67
2021/05/05 04:50:09;;;;;;;12.93;3.57;;;19.70;97.60;;;;;;5049706;28;20182;-64
2021/05/05 04:52:35;;;;;;;22.13;4.43;;;19.70;97.50;;;;;;5060365;28;20578;-67
2021/05/05 04:55:03;;;;;;;19.93;3.77;;;19.80;98.30;;;;;;5062052;28;20788;-66
2021/05/05 04:57:30;;;;;;;19.43;3.90;;;19.80;98.60;;;;;;5063271;28;20229;-69
2021/05/05 04:59:56;;;;;;;27.03;4.83;;;19.90;98.00;;;;;;5066789;28;20225;-67
2021/05/05 05:02:22;;;;;;;15.20;3.90;;;19.90;98.00;;;;;;5066586;28;20250;-67
2021/05/05 05:04:49;;;;;;;22.90;4.33;;;20.00;96.70;;;;;;5066741;28;20183;-67
2021/05/05 05:07:16;;;;;;;22.43;4.07;;;20.20;94.10;;;;;;5062724;28;20195;-68
2021/05/05 05:09:43;;;;;;;22.90;4.47;;;20.20;94.70;;;;;;5063141;28;20222;-69
2021/05/05 05:12:10;;;;;;;30.27;4.30;;;20.20;95.50;;;;;;5065480;28;20202;-68
2021/05/05 05:14:37;;;;;;;20.33;4.23;;;20.30;95.70;;;;;;5083696;28;20276;-70
2021/05/05 05:17:04;;;;;;;20.70;4.37;;;20.40;95.70;;;;;;5064781;28;20199;-68
2021/05/05 05:19:31;;;;;;;22.20;4.17;;;20.40;95.80;;;;;;5057341;28;20612;-69
2021/05/05 05:22:00;;;;;;;21.80;3.63;;;20.50;95.80;;;;;;5046679;28;20549;-68
2021/05/05 05:24:28;;;;;;;27.97;4.00;;;20.60;95.30;;;;;;5063793;28;20194;-69
2021/05/05 05:26:54;;;;;;;21.03;4.27;;;20.50;95.10;;;;;;5058717;28;20776;-68
2021/05/05 05:29:21;;;;;;;23.33;4.10;;;20.60;94.80;;;;;;5064182;28;20708;-68
2021/05/05 05:31:49;;;;;;;28.73;4.13;;;20.60;95.40;;;;;;5070012;28;20193;-68
2021/05/05 05:34:15;;;;;;;20.00;4.67;;;20.60;96.60;;;;;;5066485;28;20191;-67
2021/05/05 05:36:42;;;;;;;17.17;4.70;;;20.50;97.70;;;;;;5058787;28;20223;-67
2021/05/05 05:39:10;;;;;;;21.53;4.53;;;20.60;98.80;;;;;;5065505;28;20797;-69
2021/05/05 05:41:36;;;;;;;30.13;4.43;;;20.60;99.10;;;;;;5069219;28;20566;-67
2021/05/05 05:44:04;;;;;;;20.53;4.73;;;20.70;99.40;;;;;;5063020;28;20194;-69
2021/05/05 05:46:31;;;;;;;24.50;5.27;;;20.80;99.90;;;;;;5060998;28;20217;-69
2021/05/05 05:48:58;;;;;;;21.47;4.30;;;20.90;99.90;;;;;;5065324;28;20190;-68
2021/05/05 05:51:25;;;;;;;22.57;4.67;;;21.00;99.90;;;;;;5060839;28;20233;-72
2021/05/05 05:53:51;;;;;;;27.97;4.87;;;21.10;99.90;;;;;;5063117;28;20218;-68
2021/05/05 05:56:17;;;;;;;25.13;4.70;;;21.10;99.90;;;;;;5065396;28;20183;-68
2021/05/05 05:58:44;;;;;;;25.40;4.90;;;21.20;99.90;;;;;;5060259;28;20309;-67
2021/05/05 06:01:10;;;;;;;19.43;4.60;;;21.20;99.90;;;;;;5064436;28;20822;-68
2021/05/05 06:03:38;;;;;;;28.33;4.80;;;21.20;99.90;;;;;;5068808;28;20190;-68
2021/05/05 06:06:05;;;;;;;25.40;5.00;;;21.30;99.90;;;;;;5062119;28;20191;-68
2021/05/05 06:08:33;;;;;;;28.97;5.13;;;21.30;99.90;;;;;;5056757;28;20656;-68
2021/05/05 06:11:01;;;;;;;27.63;5.17;;;21.30;99.90;;;;;;5064279;28;20194;-68
2021/05/05 06:13:29;;;;;;;26.67;5.50;;;21.50;99.90;;;;;;5064111;28;20219;-68
2021/05/05 06:15:56;;;;;;;30.80;5.40;;;21.60;99.90;;;;;;5060725;28;20205;-66
2021/05/05 06:18:23;;;;;;;26.93;4.97;;;21.70;99.90;;;;;;5062658;28;20602;-70
2021/05/05 06:20:49;;;;;;;25.57;5.27;;;21.70;99.90;;;;;;5059930;28;20229;-68
2021/05/05 06:23:16;;;;;;;20.83;4.70;;;21.70;99.90;;;;;;5047283;28;20211;-68
2021/05/05 06:25:42;;;;;;;38.20;5.70;;;21.90;99.90;;;;;;5061668;28;20195;-68
2021/05/05 06:28:10;;;;;;;31.77;4.93;;;22.00;99.90;;;;;;5064759;28;20187;-67
2021/05/05 06:30:36;;;;;;;25.37;5.33;;;22.00;99.90;;;;;;5062300;28;20566;-69
2021/05/05 06:33:04;;;;;;;28.80;5.50;;;22.10;99.90;;;;;;5061009;28;20194;-67
2021/05/05 06:35:31;;;;;;;25.93;4.97;;;22.00;99.90;;;;;;5057752;28;20222;-71
2021/05/05 06:38:00;;;;;;;21.03;5.27;;;22.10;99.90;;;;;;5062156;28;20191;-66
2021/05/05 06:40:27;;;;;;;28.40;5.37;;;22.10;99.90;;;;;;5060166;28;20198;-68
2021/05/05 06:42:53;;;;;;;22.00;5.40;;;22.30;99.90;;;;;;5061808;28;20195;-66
2021/05/05 06:45:20;;;;;;;28.73;5.43;;;22.30;99.90;;;;;;5062656;28;20213;-69
2021/05/05 06:47:46;;;;;;;25.17;5.80;;;22.50;99.90;;;;;;5062044;28;20255;-70
2021/05/05 06:50:15;;;;;;;25.20;5.63;;;22.60;99.90;;;;;;5061978;28;20194;-68
2021/05/05 06:52:42;;;;;;;24.33;4.90;;;22.70;99.90;;;;;;5061974;28;20793;-64
2021/05/05 06:55:11;;;;;;;30.63;5.83;;;22.80;99.90;;;;;;5060340;28;20191;-70
2021/05/05 06:57:40;;;;;;;19.97;5.37;;;22.80;99.90;;;;;;5060505;28;20285;-68
2021/05/05 07:00:08;;;;;;;35.20;4.87;;;22.90;99.90;;;;;;5062381;28;20218;-68
2021/05/05 07:02:36;;;;;;;22.93;4.23;;;23.00;99.90;;;;;;5060472;28;20199;-67
2021/05/05 07:05:05;;;;;;;29.83;5.40;;;23.10;99.90;;;;;;5070650;28;20187;-67
2021/05/05 07:07:32;;;;;;;31.60;5.87;;;23.20;99.90;;;;;;5057185;28;20206;-66
2021/05/05 07:09:59;;;;;;;24.83;5.23;;;23.30;99.90;;;;;;5045261;28;20582;-67
2021/05/05 07:12:25;;;;;;;27.13;4.90;;;23.30;99.90;;;;;;5044043;28;20187;-67
2021/05/05 07:14:53;;;;;;;24.27;5.43;;;23.40;99.90;;;;;;5070233;28;20658;-68
2021/05/05 07:17:21;;;;;;;21.37;5.27;;;23.50;99.90;;;;;;5058484;28;20583;-69
2021/05/05 07:19:53;;;;;;;23.33;5.57;;;23.50;99.90;;;;;;5058111;28;20227;-68
2021/05/05 07:22:21;;;;;;;27.70;5.50;;;23.60;99.90;;;;;;5068559;28;20225;-66
2021/05/05 07:24:48;;;;;;;29.47;5.17;;;23.80;99.90;;;;;;5053707;28;20198;-66
2021/05/05 07:27:16;;;;;;;39.87;5.23;;;23.70;99.90;;;;;;5058945;28;20302;-69
2021/05/05 07:29:43;;;;;;;30.43;5.67;;;23.80;99.90;;;;;;5058513;28;20183;-67
2021/05/05 07:32:10;;;;;;;27.53;5.13;;;23.90;99.90;;;;;;5058284;28;22102;-67
2021/05/05 07:34:41;;;;;;;29.77;4.97;;;24.00;99.90;;;;;;5062625;28;20198;-66
2021/05/05 07:37:14;;;;;;;29.43;5.73;;;24.10;99.90;;;;;;5054263;28;20217;-66
2021/05/05 07:45:24;;;;;;;26.43;5.20;;;24.30;99.90;;;;;;5058161;28;20256;-67
2021/05/05 07:47:54;;;;;;;26.17;4.90;;;24.50;99.90;;;;;;5061949;28;20882;-67
2021/05/05 07:50:22;;;;;;;22.37;4.90;;;24.60;99.90;;;;;;5060929;28;20851;-67
2021/05/05 07:52:50;;;;;;;31.97;5.40;;;24.70;99.90;;;;;;5058485;28;20195;-67
2021/05/05 07:55:17;;;;;;;20.50;5.27;;;24.60;99.90;;;;;;5062387;28;20194;-68
2021/05/05 07:57:44;;;;;;;24.73;5.10;;;24.70;99.90;;;;;;5055776;28;21824;-68
2021/05/05 08:00:14;;;;;;;39.73;6.13;;;24.70;99.90;;;;;;5058869;28;20223;-68
2021/05/05 08:02:43;;;;;;;23.80;5.20;;;24.70;99.90;;;;;;5062122;28;20195;-67
2021/05/05 08:05:12;;;;;;;29.90;5.67;;;24.80;99.90;;;;;;5064619;28;20750;-67
2021/05/05 08:07:39;;;;;;;34.27;5.53;;;24.90;99.90;;;;;;5063805;28;20198;-68
2021/05/05 08:10:09;;;;;;;24.40;5.53;;;24.90;99.90;;;;;;5057802;28;20226;-68
2021/05/05 08:12:35;;;;;;;27.97;5.17;;;24.90;99.90;;;;;;5062148;28;20195;-66
2021/05/05 08:15:04;;;;;;;25.07;5.57;;;24.90;99.90;;;;;;5056876;28;20206;-67
2021/05/05 08:17:31;;;;;;;27.03;5.83;;;24.90;99.90;;;;;;5047385;28;20213;-66
2021/05/05 08:19:59;;;;;;;35.53;5.83;;;25.10;99.90;;;;;;5061771;28;20223;-68
2021/05/05 08:22:27;;;;;;;28.80;5.43;;;25.10;99.90;;;;;;5042543;28;20602;-68
2021/05/05 08:24:53;;;;;;;24.33;6.37;;;25.30;99.90;;;;;;5059221;28;20478;-68
2021/05/05 08:27:23;;;;;;;39.27;6.17;;;25.30;99.90;;;;;;5062380;28;20183;-67
2021/05/05 08:29:52;;;;;;;27.37;6.67;;;25.30;99.90;;;;;;5064129;28;20243;-69
2021/05/05 08:32:20;;;;;;;26.07;6.07;;;25.50;99.90;;;;;;5060071;28;20202;-68
2021/05/05 08:34:48;;;;;;;23.83;5.37;;;25.60;99.90;;;;;;5063650;28;20198;-66
2021/05/05 08:37:15;;;;;;;24.50;4.90;;;25.80;99.90;;;;;;5064587;28;20230;-69
2021/05/05 08:39:41;;;;;;;25.63;6.17;;;25.80;99.90;;;;;;5059850;28;20207;-68
2021/05/05 08:42:08;;;;;;;31.23;6.13;;;25.70;99.90;;;;;;5062358;28;20190;-67
2021/05/05 08:44:35;;;;;;;28.17;5.43;;;25.70;99.90;;;;;;5059470;28;20704;-68
2021/05/05 08:47:03;;;;;;;30.07;6.00;;;25.50;99.90;;;;;;5061700;28;20183;-68
2021/05/05 08:49:32;;;;;;;28.50;6.13;;;25.40;99.90;;;;;;5043470;28;20735;-66
2021/05/05 08:52:02;;;;;;;29.73;5.63;;;25.60;99.90;;;;;;5060579;28;20285;-67
2021/05/05 08:54:29;;;;;;;31.27;5.70;;;25.60;99.90;;;;;;5054352;28;20199;-67
2021/05/05 08:56:56;;;;;;;32.77;6.67;;;25.60;99.90;;;;;;5063282;28;20843;-69
2021/05/05 08:59:22;;;;;;;29.70;6.07;;;25.60;99.90;;;;;;5057153;28;20222;-67
2021/05/05 09:01:50;;;;;;;29.77;6.30;;;25.80;99.90;;;;;;5077653;28;20198;-67
2021/05/05 09:04:18;;;;;;;30.60;5.37;;;25.90;99.90;;;;;;5060414;28;20188;-68
2021/05/05 09:06:52;;;;;;;33.17;6.00;;;25.90;99.90;;;;;;5052077;28;20184;-68
2021/05/05 09:09:38;;;;;;;26.73;6.97;;;26.10;99.90;;;;;;5063921;28;20202;-69
2021/05/05 09:12:23;;;;;;;32.80;5.95;;;26.20;99.90;;;;;;5060382;28;20309;-69
2021/05/05 09:14:52;;;;;;;27.15;5.68;;;26.20;99.90;;;;;;5060544;28;20191;-66
2021/05/05 09:17:22;;;;;;;36.72;6.57;;;26.30;99.90;;;;;;5065175;28;20182;-67
2021/05/05 09:19:48;;;;;;;31.42;6.93;;;26.40;99.90;;;;;;5062543;28;20221;-70
2021/05/05 09:22:38;;;;;;;31.50;5.75;;;26.70;99.90;;;;;;5060550;28;20187;-68
2021/05/05 09:25:09;;;;;;;39.78;5.82;;;26.80;99.90;;;;;;5070400;28;20191;-67
2021/05/05 09:27:39;;;;;;;31.75;5.97;;;26.90;99.90;;;;;;5057620;28;20711;-68
2021/05/05 09:30:21;;;;;;;26.00;5.28;;;27.00;99.90;;;;;;5061367;28;20998;-68
2021/05/05 09:32:55;;;;;;;34.40;6.72;;;27.00;99.90;;;;;;5062894;28;20256;-68
2021/05/05 09:35:40;;;;;;;28.90;6.20;;;27.20;99.90;;;;;;5060105;28;20194;-68
2021/05/05 09:38:12;;;;;;;36.35;6.68;;;27.20;99.90;;;;;;5076085;28;20201;-69
2021/05/05 09:40:58;;;;;;;30.83;6.07;;;27.20;99.90;;;;;;5059557;28;20190;-68
2021/05/05 09:43:25;;;;;;;21.75;5.65;;;27.20;99.90;;;;;;5059201;28;20344;-67
2021/05/05 09:45:52;;;;;;;32.88;5.95;;;27.40;99.90;;;;;;5072108;28;20772;-67
2021/05/05 09:48:24;;;;;;;26.65;6.20;;;27.60;99.90;;;;;;5063287;28;20640;-67
2021/05/05 09:51:04;;;;;;;33.83;5.72;;;27.90;99.90;;;;;;5057699;28;20222;-69
2021/05/05 09:53:32;;;;;;;34.15;7.25;;;27.90;99.90;;;;;;5058981;28;20187;-67
2021/05/05 09:56:00;;;;;;;33.08;5.93;;;28.00;99.90;;;;;;5061866;28;20274;-68
2021/05/05 09:58:41;;;;;;;27.67;5.35;;;28.20;99.90;;;;;;5066124;28;20209;-68
2021/05/05 10:01:10;;;;;;;22.48;5.93;;;28.40;99.90;;;;;;5058266;28;21454;-67
2021/05/05 10:03:48;;;;;;;23.73;5.80;;;28.30;99.90;;;;;;5078691;28;20187;-67
2021/05/05 10:06:40;;;;;;;23.73;5.93;;;28.50;99.90;;;;;;5056978;28;20186;-68
2021/05/05 10:09:13;;;;;;;27.52;5.22;;;28.60;99.90;;;;;;5059453;28;20194;-67
2021/05/05 10:11:43;;;;;;;27.17;5.85;;;28.70;99.90;;;;;;5045588;28;20179;-68
2021/05/05 10:14:12;;;;;;;33.95;6.20;;;28.80;99.90;;;;;;5057171;28;20603;-65
2021/05/05 10:16:44;;;;;;;30.90;6.82;;;29.00;99.90;;;;;;5045121;28;20190;-66
2021/05/05 10:19:26;;;;;;;26.42;5.80;;;28.80;99.20;;;;;;5058807;28;20245;-68
2021/05/05 10:22:06;;;;;;;22.55;5.50;;;29.20;97.80;;;;;;5056934;28;20511;-69
2021/05/05 10:24:45;;;;;;;26.00;5.93;;;29.30;97.70;;;;;;5060940;28;20205;-67
2021/05/05 10:27:13;;;;;;;33.28;6.07;;;29.40;97.90;;;;;;5051337;28;20205;-66
2021/05/05 10:29:43;;;;;;;26.10;6.00;;;29.70;97.60;;;;;;5056747;28;20210;-68
2021/05/05 10:32:13;;;;;;;22.27;5.63;;;29.50;95.10;;;;;;5057514;28;20682;-67
2021/05/05 10:34:44;;;;;;;26.50;5.13;;;29.40;94.70;;;;;;5060480;28;21339;-67
2021/05/05 10:37:12;;;;;;;23.25;5.50;;;29.10;93.80;;;;;;5051674;28;20651;-68
2021/05/05 10:39:41;;;;;;;29.83;5.80;;;29.20;93.70;;;;;;5062300;28;20229;-66
2021/05/05 10:42:18;;;;;;;30.38;5.95;;;29.50;94.10;;;;;;5057897;28;20705;-68
2021/05/05 10:44:58;;;;;;;29.05;5.78;;;29.50;93.70;;;;;;5073255;28;20190;-68
2021/05/05 10:47:34;;;;;;;25.90;5.38;;;29.20;94.90;;;;;;5060741;28;20724;-68
2021/05/05 10:50:07;;;;;;;22.67;5.72;;;29.20;93.20;;;;;;5061225;28;20228;-67
2021/05/05 10:52:43;;;;;;;23.42;5.75;;;29.30;93.50;;;;;;5063652;28;20191;-70
2021/05/05 10:55:20;;;;;;;22.15;5.50;;;29.30;94.20;;;;;;5062421;28;20218;-68
2021/05/05 10:58:13;;;;;;;25.25;5.57;;;29.30;93.50;;;;;;5059356;28;20186;-67
2021/05/05 11:00:53;;;;;;;21.60;4.97;;;29.10;93.70;;;;;;5061508;28;20683;-68
2021/05/05 11:03:42;;;;;;;23.27;5.65;;;29.10;94.60;;;;;;5060303;28;20185;-67
2021/05/05 11:06:34;;;;;;;26.00;5.68;;;29.20;95.30;;;;;;5060826;28;20252;-68
2021/05/05 11:09:19;;;;;;;30.77;6.18;;;29.00;95.00;;;;;;5061879;28;20821;-67
2021/05/05 11:11:50;;;;;;;35.60;5.65;;;28.60;95.40;;;;;;5059626;28;20217;-69
2021/05/05 11:14:32;;;;;;;23.15;5.80;;;28.80;95.30;;;;;;5059938;28;20202;-69
2021/05/05 11:17:00;;;;;;;27.50;5.32;;;29.00;95.40;;;;;;5059424;28;20649;-68
2021/05/05 11:19:41;;;;;;;25.58;5.53;;;28.70;95.20;;;;;;5055354;28;20683;-67
2021/05/05 11:22:25;;;;;;;30.60;6.07;;;28.80;95.20;;;;;;5078655;28;20189;-67
2021/05/05 11:24:53;;;;;;;23.92;5.53;;;28.80;95.30;;;;;;5059925;28;20277;-67
2021/05/05 11:27:51;;;;;;;19.75;5.15;;;28.60;94.90;;;;;;5063095;28;20186;-66
2021/05/05 11:30:42;;;;;;;24.85;5.85;;;28.60;96.10;;;;;;5061576;28;20190;-66
2021/05/05 11:33:11;;;;;;;32.08;6.30;;;28.70;95.20;;;;;;5058626;28;20190;-69
2021/05/05 11:35:41;;;;;;;24.70;5.75;;;28.70;95.10;;;;;;5054877;28;20211;-67
2021/05/05 11:38:24;;;;;;;26.88;5.47;;;28.70;94.90;;;;;;5057455;28;20286;-67
2021/05/05 11:41:00;;;;;;;18.98;5.05;;;28.50;95.20;;;;;;5062872;28;20589;-66
2021/05/05 11:43:31;;;;;;;25.48;5.95;;;28.50;95.60;;;;;;5061495;28;20208;-67
2021/05/05 11:46:03;;;;;;;22.00;5.53;;;28.50;96.30;;;;;;5065830;28;20741;-67
2021/05/05 11:48:37;;;;;;;34.25;5.93;;;28.20;95.70;;;;;;5065152;28;20531;-70
2021/05/05 11:51:26;;;;;;;34.78;5.13;;;28.20;96.10;;;;;;5063483;28;20292;-67
2021/05/05 11:53:54;;;;;;;28.98;5.90;;;28.10;96.50;;;;;;5076300;28;20186;-69
2021/05/05 11:56:23;;;;;;;27.17;5.88;;;28.00;95.50;;;;;;5040029;28;20183;-70
2021/05/05 11:58:55;;;;;;;30.95;5.55;;;27.80;96.30;;;;;;5026400;28;20211;-67
2021/05/05 12:01:38;;;;;;;27.95;5.90;;;27.80;96.40;;;;;;5058872;28;20179;-68
2021/05/05 12:04:21;;;;;;;27.20;5.13;;;27.70;97.00;;;;;;5067256;28;20187;-69
2021/05/05 12:07:00;;;;;;;23.58;5.60;;;27.90;96.90;;;;;;5062314;28;20187;-67
2021/05/05 12:09:37;;;;;;;27.98;5.90;;;27.80;96.40;;;;;;5063468;28;20190;-67
2021/05/05 12:12:28;;;;;;;28.20;6.40;;;27.80;95.90;;;;;;5062901;28;20186;-67
2021/05/05 12:15:05;;;;;;;26.33;5.90;;;27.60;96.30;;;;;;5062649;28;20191;-68
2021/05/05 12:20:08;;;;;;;33.08;5.57;;;27.60;96.90;;;;;;5062893;28;20354;-68
2021/05/05 12:22:58;;;;;;;27.40;5.88;;;27.80;97.70;;;;;;5062453;28;20190;-67
2021/05/05 12:25:32;;;;;;;26.80;5.93;;;27.70;97.20;;;;;;5062760;28;20195;-67
2021/05/05 12:28:19;;;;;;;28.77;5.20;;;27.40;96.90;;;;;;5062570;28;20197;-67
2021/05/05 12:30:53;;;;;;;28.25;5.32;;;27.40;97.50;;;;;;5065004;28;20820;-69
2021/05/05 12:33:30;;;;;;;25.15;5.07;;;27.40;97.30;;;;;;5061674;28;20174;-67
2021/05/05 12:35:57;;;;;;;27.55;4.63;;;27.50;96.20;;;;;;5058880;28;20217;-67
2021/05/05 12:38:24;;;;;;;26.90;4.53;;;27.40;93.30;;;;;;5065856;28;20215;-68
2021/05/05 12:41:02;;;;;;;23.00;4.97;;;27.40;93.20;;;;;;5060702;28;20277;-68
2021/05/05 12:43:29;;;;;;;29.48;4.88;;;27.60;94.10;;;;;;5061393;28;20231;-68
2021/05/05 12:45:59;;;;;;;19.55;4.70;;;27.60;93.90;;;;;;5060164;28;20187;-67
2021/05/05 12:48:45;;;;;;;19.88;5.05;;;27.50;92.70;;;;;;5064047;28;20198;-68
2021/05/05 12:51:20;;;;;;;15.93;4.32;;;27.60;92.80;;;;;;5057920;28;20735;-68
2021/05/05 12:54:03;;;;;;;23.38;4.93;;;27.60;93.60;;;;;;5068044;28;20181;-67
2021/05/05 12:56:48;;;;;;;22.27;4.50;;;27.10;93.50;;;;;;5061570;28;20271;-66
2021/05/05 12:59:41;;;;;;;28.17;4.97;;;27.10;94.00;;;;;;5064411;28;20206;-68